Time;durP1;ratioP1;P1;durP2;ratioP2;P2;SDS_P1;SDS_P2;PMS_P1;PMS_P2;Temp;Humidity;BMP_temperature;BMP_pressure;BME280_temperature;BME280_humidity;BME280_pressure;Samples;Min_cycle;Max_cycle;Signal;HPM_P1;HPM_P2
2021/07/14 00:01:25;;;;;;;41.63;16.27;;;;;;;17.83;86.32;94576.66;1686512;84;21105;-50
2021/07/14 00:03:53;;;;;;;25.12;16.55;;;;;;;17.82;86.30;94584.23;1682965;84;21011;-51
2021/07/14 00:06:19;;;;;;;21.17;14.90;;;;;;;17.82;86.38;94575.14;1685454;84;20975;-51
2021/07/14 00:08:48;;;;;;;29.25;14.50;;;;;;;17.82;86.42;94579.31;1686769;84;20947;-50
2021/07/14 00:11:17;;;;;;;23.25;15.20;;;;;;;17.78;86.51;94580.93;1684623;84;20974;-51
2021/07/14 00:22:07;;;;;;;17.82;14.63;;;;;;;17.53;87.00;94585.19;1686669;84;20992;-50
2021/07/14 00:24:32;;;;;;;23.02;13.93;;;;;;;17.44;87.35;94589.56;1692637;83;21140;-50
2021/07/14 00:27:01;;;;;;;23.10;15.35;;;;;;;17.41;87.90;94589.14;1691781;83;20940;-50
2021/07/14 00:29:29;;;;;;;27.02;15.20;;;;;;;17.39;87.78;94592.44;1686617;84;21021;-50
2021/07/14 00:31:56;;;;;;;24.77;15.43;;;;;;;17.35;87.65;94592.52;1689421;83;21137;-50
2021/07/14 00:34:22;;;;;;;18.27;14.73;;;;;;;17.27;87.68;94595.59;1690050;84;21069;-50
2021/07/14 00:36:49;;;;;;;18.25;14.18;;;;;;;17.23;87.93;94589.48;1686245;83;21191;-50
2021/07/14 00:39:16;;;;;;;21.15;14.47;;;;;;;17.22;87.95;94596.30;1692889;83;21517;-50
2021/07/14 00:41:43;;;;;;;19.55;14.83;;;;;;;17.22;88.30;94594.91;1695935;83;21594;-50
2021/07/14 00:44:09;;;;;;;28.00;14.58;;;;;;;17.26;88.34;94599.64;1689866;83;21015;-50
2021/07/14 00:46:38;;;;;;;23.70;15.32;;;;;;;17.29;88.16;94600.78;1697058;83;21105;-49
2021/07/14 00:49:07;;;;;;;24.55;14.50;;;;;;;17.29;87.74;94600.03;1695965;83;21127;-51
2021/07/14 00:51:33;;;;;;;24.40;13.40;;;;;;;17.30;87.83;94610.64;1668161;84;21068;-51
2021/07/14 00:54:00;;;;;;;21.42;14.13;;;;;;;17.33;87.76;94615.86;1694470;83;21022;-50
2021/07/14 00:56:28;;;;;;;21.97;15.10;;;;;;;17.28;87.72;94612.41;1675423;85;21061;-50
2021/07/14 00:58:56;;;;;;;18.60;14.45;;;;;;;17.24;87.85;94611.23;1680650;84;21011;-50
2021/07/14 01:01:24;;;;;;;19.60;13.32;;;;;;;17.18;87.87;94607.66;1690355;84;21808;-51
2021/07/14 01:04:11;;;;;;;21.20;14.35;;;;;;;17.09;88.01;94601.52;1689092;83;21009;-51
2021/07/14 01:06:50;;;;;;;21.87;14.40;;;;;;;17.03;88.29;94612.58;1682762;83;21236;-51
2021/07/14 01:09:33;;;;;;;32.28;15.08;;;;;;;17.05;88.82;94614.84;1686282;83;20986;-51
2021/07/14 01:12:08;;;;;;;21.23;15.10;;;;;;;17.06;88.63;94611.59;1686782;84;21084;-50
2021/07/14 01:14:43;;;;;;;26.12;14.40;;;;;;;17.03;88.28;94611.80;1688075;83;21125;-51
2021/07/14 01:17:14;;;;;;;38.98;15.05;;;;;;;17.00;88.21;94616.95;1691187;83;21427;-51
2021/07/14 01:20:07;;;;;;;31.65;14.55;;;;;;;16.95;88.18;94620.45;1685540;84;21431;-51
2021/07/14 01:22:40;;;;;;;;;;;;;;;16.91;88.03;94618.53;1690774;83;21029;-52
2021/07/14 01:25:29;;;;;;;23.87;17.45;;;;;;;16.87;88.17;94620.77;1682548;84;20162;-50
2021/07/14 01:27:58;;;;;;;21.15;14.63;;;;;;;16.81;88.24;94620.70;1682765;84;21142;-50
2021/07/14 01:30:24;;;;;;;30.37;15.18;;;;;;;16.79;88.14;94625.22;1687840;83;21490;-50
2021/07/14 01:32:52;;;;;;;23.05;16.25;;;;;;;16.76;88.25;94624.81;1682525;84;21079;-50
2021/07/14 01:35:23;;;;;;;32.03;15.78;;;;;;;16.76;88.34;94621.39;1691743;83;21117;-50
2021/07/14 01:37:50;;;;;;;34.45;14.85;;;;;;;16.73;88.36;94627.19;1683598;83;21029;-50
2021/07/14 01:40:18;;;;;;;29.65;15.63;;;;;;;16.64;88.33;94620.37;1685512;83;21455;-50
2021/07/14 01:42:46;;;;;;;45.10;15.48;;;;;;;16.54;88.62;94620.41;1671064;83;21108;-50
2021/07/14 01:45:15;;;;;;;24.32;13.45;;;;;;;16.48;88.85;94623.73;1691652;83;21030;-52
2021/07/14 01:47:42;;;;;;;41.23;15.13;;;;;;;16.45;89.05;94616.38;1681536;84;20997;-50
2021/07/14 01:50:11;;;;;;;29.18;15.58;;;;;;;16.42;89.13;94627.08;1687921;84;20958;-50
2021/07/14 01:52:40;;;;;;;32.60;16.73;;;;;;;16.41;89.25;94623.55;1691436;83;21003;-50
2021/07/14 01:55:08;;;;;;;23.45;15.38;;;;;;;16.41;89.31;94622.78;1688970;84;20994;-51
2021/07/14 01:57:36;;;;;;;28.40;14.20;;;;;;;16.40;89.41;94624.78;1685804;83;21019;-51
2021/07/14 02:00:08;;;;;;;22.80;13.72;;;;;;;16.45;89.46;94621.94;1697505;83;21046;-51
2021/07/14 02:02:49;;;;;;;24.57;15.18;;;;;;;16.47;89.47;94627.16;1690860;84;21081;-51
2021/07/14 02:05:09;;;;;;;23.02;15.20;;;;;;;16.51;89.45;94626.30;1692053;83;21199;-51
2021/07/14 02:07:37;;;;;;;29.32;14.85;;;;;;;16.53;89.24;94624.44;1687732;83;21006;-51
2021/07/14 02:10:06;;;;;;;31.02;14.83;;;;;;;16.54;89.13;94621.16;1681082;84;21055;-52
2021/07/14 02:12:34;;;;;;;24.90;13.72;;;;;;;16.54;88.79;94623.94;1694408;83;21035;-51
2021/07/14 02:15:05;;;;;;;33.98;16.45;;;;;;;16.52;88.77;94622.92;1691991;83;21046;-51
2021/07/14 02:18:04;;;;;;;27.95;16.45;;;;;;;16.49;88.99;94623.88;1689302;83;21156;-52
2021/07/14 02:20:33;;;;;;;29.07;17.00;;;;;;;16.48;88.91;94627.90;1674526;83;20947;-52
2021/07/14 02:23:01;;;;;;;25.45;15.03;;;;;;;16.47;89.02;94629.16;1688772;83;21018;-53
2021/07/14 02:25:28;;;;;;;22.75;14.18;;;;;;;16.49;88.96;94634.98;1672711;85;21181;-51
2021/07/14 02:27:55;;;;;;;23.47;15.08;;;;;;;16.50;88.61;94630.95;1684170;84;21022;-51
2021/07/14 02:30:23;;;;;;;23.20;16.02;;;;;;;16.44;88.33;94630.13;1694052;83;21215;-51
2021/07/14 02:32:54;;;;;;;18.92;14.30;;;;;;;16.36;88.44;94629.78;1691254;83;20950;-51
2021/07/14 02:35:21;;;;;;;25.77;14.80;;;;;;;16.33;88.58;94631.38;1685700;83;20942;-51
2021/07/14 02:38:15;;;;;;;32.63;15.75;;;;;;;16.32;88.73;94632.59;1691792;83;21002;-50
2021/07/14 02:41:11;;;;;;;27.58;14.38;;;;;;;16.28;88.92;94625.89;1692844;83;20991;-50
2021/07/14 02:43:41;;;;;;;22.17;14.93;;;;;;;16.32;89.03;94625.66;1692457;83;21052;-49
2021/07/14 02:46:13;;;;;;;19.27;15.48;;;;;;;16.29;89.28;94621.86;1684436;83;21063;-51
2021/07/14 02:48:38;;;;;;;18.98;15.63;;;;;;;16.28;89.32;94622.98;1690824;84;20958;-52
2021/07/14 02:51:05;;;;;;;20.57;14.70;;;;;;;16.25;89.28;94623.31;1641432;85;20995;-52
2021/07/14 02:53:35;;;;;;;20.40;13.00;;;;;;;16.25;89.33;94624.70;1680473;84;20959;-52
2021/07/14 02:56:06;;;;;;;18.80;13.60;;;;;;;16.27;89.45;94620.06;1671985;84;21141;-52
2021/07/14 02:58:35;;;;;;;23.05;14.95;;;;;;;16.25;89.54;94624.70;1683110;83;21015;-51
2021/07/14 03:01:01;;;;;;;21.70;15.83;;;;;;;16.24;89.60;94621.78;1686508;84;21009;-51
2021/07/14 03:03:28;;;;;;;25.72;14.93;;;;;;;16.25;89.61;94618.40;1667828;84;21126;-51
2021/07/14 03:05:59;;;;;;;16.93;14.38;;;;;;;16.26;89.50;94622.06;1690741;84;21005;-51
2021/07/14 03:08:29;;;;;;;23.10;14.20;;;;;;;16.29;89.42;94622.47;1692514;83;21796;-51
2021/07/14 03:10:57;;;;;;;21.80;13.70;;;;;;;16.28;89.30;94614.78;1683220;83;21529;-51
2021/07/14 03:13:26;;;;;;;31.85;14.47;;;;;;;16.28;89.26;94619.55;1687588;83;21179;-51
2021/07/14 03:15:53;;;;;;;20.55;14.38;;;;;;;16.24;89.10;94620.40;1680079;83;20976;-51
2021/07/14 03:18:20;;;;;;;29.65;15.45;;;;;;;16.19;89.01;94620.32;1690405;83;21463;-51
2021/07/14 03:20:47;;;;;;;27.65;16.05;;;;;;;16.16;89.08;94620.69;1668210;85;21100;-51
2021/07/14 03:23:15;;;;;;;20.48;14.73;;;;;;;16.19;89.20;94621.10;1684825;84;21570;-51
2021/07/14 03:25:43;;;;;;;25.43;15.85;;;;;;;16.27;89.24;94621.45;1684145;83;21568;-51
2021/07/14 03:28:11;;;;;;;26.42;14.07;;;;;;;16.36;88.96;94620.71;1688689;83;21458;-52
2021/07/14 03:30:40;;;;;;;43.08;16.27;;;;;;;16.39;88.50;94618.34;1683248;84;20943;-50
2021/07/14 03:33:06;;;;;;;29.65;14.83;;;;;;;16.37;88.19;94617.42;1688690;84;21107;-50
2021/07/14 03:35:33;;;;;;;28.47;14.75;;;;;;;16.34;88.00;94622.57;1690041;83;21112;-51
2021/07/14 03:38:03;;;;;;;41.05;17.02;;;;;;;16.30;87.72;94618.44;1679988;84;20959;-51
2021/07/14 03:40:28;;;;;;;40.60;17.27;;;;;;;16.27;88.07;94621.45;1684883;83;21035;-50
2021/07/14 03:42:55;;;;;;;42.05;16.55;;;;;;;16.26;88.03;94617.89;1687314;83;21041;-52
2021/07/14 03:45:21;;;;;;;50.75;15.45;;;;;;;16.27;87.98;94618.03;1681394;83;21107;-50
2021/07/14 03:47:50;;;;;;;32.53;14.30;;;;;;;16.26;87.93;94618.53;1679892;84;20952;-52
2021/07/14 03:50:18;;;;;;;43.40;16.67;;;;;;;16.23;88.06;94622.26;1679957;84;20959;-52
2021/07/14 03:52:48;;;;;;;35.35;15.88;;;;;;;16.23;88.20;94620.27;1670088;85;21095;-54
2021/07/14 03:55:15;;;;;;;40.95;16.00;;;;;;;16.25;88.24;94612.20;1685770;83;21012;-54
2021/07/14 03:57:43;;;;;;;27.50;13.88;;;;;;;16.27;88.33;94613.13;1671263;84;21149;-50
2021/07/14 04:00:11;;;;;;;32.28;15.30;;;;;;;16.32;88.36;94611.77;1693213;83;20958;-52
2021/07/14 04:02:41;;;;;;;34.58;17.20;;;;;;;16.34;88.49;94609.30;1689511;83;20989;-52
2021/07/14 04:05:12;;;;;;;27.20;17.23;;;;;;;16.37;88.60;94605.58;1687240;83;20999;-50
2021/07/14 04:07:41;;;;;;;23.87;15.80;;;;;;;16.41;88.87;94613.06;1688803;84;20954;-50
2021/07/14 04:10:09;;;;;;;26.07;15.55;;;;;;;16.49;89.01;94616.31;1670137;84;21974;-50
2021/07/14 04:12:36;;;;;;;23.15;15.23;;;;;;;16.56;89.06;94621.43;1692640;83;20947;-50
2021/07/14 04:15:05;;;;;;;23.98;15.80;;;;;;;16.63;89.20;94620.25;1688619;84;21066;-49
2021/07/14 04:17:32;;;;;;;34.18;16.80;;;;;;;16.69;89.20;94620.44;1689569;83;20959;-50
2021/07/14 04:19:59;;;;;;;25.25;15.90;;;;;;;16.76;89.28;94619.25;1693503;83;20966;-50
2021/07/14 04:22:26;;;;;;;29.40;17.48;;;;;;;16.85;89.15;94621.86;1685543;84;21183;-50
2021/07/14 04:24:53;;;;;;;26.00;16.60;;;;;;;16.95;89.05;94624.62;1682880;84;20952;-51
2021/07/14 04:27:20;;;;;;;26.57;18.10;;;;;;;17.07;88.81;94617.92;1687631;83;21092;-50
2021/07/14 04:29:47;;;;;;;31.70;16.85;;;;;;;17.19;88.60;94620.30;1683314;84;20999;-50
2021/07/14 04:32:14;;;;;;;30.15;17.15;;;;;;;17.32;88.28;94619.90;1694899;83;21132;-50
2021/07/14 04:34:40;;;;;;;25.60;17.30;;;;;;;17.44;87.94;94623.69;1692113;83;21100;-50
2021/07/14 04:37:08;;;;;;;20.35;15.65;;;;;;;17.59;87.49;94623.54;1685441;83;21392;-51
2021/07/14 04:39:35;;;;;;;18.95;14.00;;;;;;;17.72;86.97;94625.28;1680124;84;21044;-51
2021/07/14 04:42:04;;;;;;;22.58;15.90;;;;;;;17.83;86.25;94619.80;1680567;84;21002;-50
2021/07/14 04:44:47;;;;;;;22.65;15.30;;;;;;;17.93;85.91;94628.07;1691101;83;20990;-50
2021/07/14 04:47:07;;;;;;;28.00;16.15;;;;;;;18.02;85.40;94620.28;1691541;83;46981;-50
2021/07/14 04:49:33;;;;;;;25.02;15.83;;;;;;;18.13;85.13;94623.13;1685888;84;21062;-50
2021/07/14 04:52:00;;;;;;;16.32;13.48;;;;;;;18.25;84.79;94620.55;1685780;84;21002;-51
2021/07/14 04:54:28;;;;;;;20.60;14.40;;;;;;;18.39;84.38;94627.34;1684375;83;21494;-50
2021/07/14 04:56:55;;;;;;;21.40;15.60;;;;;;;18.55;83.82;94625.25;1688905;84;21050;-50
2021/07/14 04:59:24;;;;;;;20.52;15.05;;;;;;;18.68;83.36;94624.78;1642918;86;20940;-50
2021/07/14 05:01:51;;;;;;;16.55;14.65;;;;;;;18.74;82.89;94623.54;1647241;86;21011;-50
2021/07/14 05:04:17;;;;;;;20.90;14.87;;;;;;;18.79;82.65;94622.78;1647216;87;21062;-51
2021/07/14 05:06:45;;;;;;;21.23;15.45;;;;;;;18.86;82.38;94619.50;1646892;87;21036;-50
2021/07/14 05:09:12;;;;;;;23.47;15.60;;;;;;;18.95;81.91;94616.48;1647060;86;21023;-51
2021/07/14 05:11:39;;;;;;;16.02;14.25;;;;;;;19.06;81.56;94623.49;1647254;87;21770;-50
2021/07/14 05:14:06;;;;;;;23.18;15.55;;;;;;;19.13;80.99;94618.80;1646901;86;21111;-53
2021/07/14 05:16:33;;;;;;;22.25;13.60;;;;;;;19.18;80.60;94619.47;1649122;86;21054;-50
2021/07/14 05:19:02;;;;;;;20.68;13.20;;;;;;;19.23;80.33;94615.91;1647037;86;21022;-51
2021/07/14 05:21:30;;;;;;;17.52;14.30;;;;;;;19.28;79.90;94610.98;1682581;84;21444;-50
2021/07/14 05:23:58;;;;;;;21.15;14.25;;;;;;;19.31;79.72;94607.18;1679679;84;21741;-51
2021/07/14 05:26:27;;;;;;;17.52;14.30;;;;;;;19.39;79.54;94610.98;1682493;84;21487;-51
2021/07/14 05:28:56;;;;;;;16.95;14.23;;;;;;;19.50;79.00;94609.59;1687349;83;21014;-52
2021/07/14 05:31:22;;;;;;;18.52;13.65;;;;;;;19.59;78.57;94607.92;1690993;83;21010;-51
2021/07/14 05:33:49;;;;;;;18.60;14.60;;;;;;;19.69;78.34;94609.20;1690589;83;21079;-52
2021/07/14 05:36:17;;;;;;;14.93;13.18;;;;;;;19.83;78.23;94610.96;1681586;83;21247;-51
2021/07/14 05:38:44;;;;;;;22.55;14.85;;;;;;;19.97;77.75;94614.12;1683167;84;21083;-52
2021/07/14 05:41:11;;;;;;;21.77;15.23;;;;;;;20.06;77.43;94608.89;1688038;83;21091;-52
2021/07/14 05:43:38;;;;;;;20.57;14.58;;;;;;;20.14;77.18;94607.86;1686412;83;21082;-52
2021/07/14 05:46:05;;;;;;;18.55;14.03;;;;;;;20.26;76.92;94612.92;1684295;83;21036;-54
2021/07/14 05:48:31;;;;;;;18.87;15.23;;;;;;;20.38;76.34;94610.84;1688609;83;21118;-51
2021/07/14 05:50:58;;;;;;;20.37;14.50;;;;;;;20.43;75.84;94604.47;1681834;83;21021;-57
2021/07/14 05:53:25;;;;;;;21.65;14.78;;;;;;;20.49;75.74;94606.59;1694403;83;21092;-53
2021/07/14 05:55:52;;;;;;;19.75;15.75;;;;;;;20.57;75.48;94610.39;1669105;83;21094;-53
2021/07/14 05:58:18;;;;;;;17.50;14.65;;;;;;;20.63;75.17;94605.53;1678794;83;21389;-52
2021/07/14 06:00:45;;;;;;;22.20;15.03;;;;;;;20.72;74.82;94603.84;1680338;83;21080;-54
2021/07/14 06:03:13;;;;;;;20.92;14.68;;;;;;;20.77;74.75;94598.85;1683430;82;21045;-52
2021/07/14 06:05:40;;;;;;;32.78;16.77;;;;;;;20.83;74.59;94604.57;1688606;83;20993;-53
2021/07/14 06:08:07;;;;;;;29.45;15.75;;;;;;;20.90;74.51;94599.81;1684991;83;21113;-54
2021/07/14 06:10:36;;;;;;;19.67;14.28;;;;;;;21.02;74.41;94604.70;1680455;83;21089;-56
2021/07/14 06:13:04;;;;;;;22.87;14.90;;;;;;;21.12;73.91;94605.92;1680997;83;21033;-53
2021/07/14 06:15:33;;;;;;;22.37;14.75;;;;;;;21.19;73.52;94600.53;1668432;84;21101;-56
2021/07/14 06:17:59;;;;;;;20.30;14.75;;;;;;;21.29;73.22;94598.17;1688869;83;20975;-58
2021/07/14 06:20:27;;;;;;;21.60;15.23;;;;;;;21.39;72.93;94599.36;1683070;82;21554;-58
2021/07/14 06:22:56;;;;;;;22.35;15.28;;;;;;;21.47;72.43;94591.92;1682543;83;21060;-58
2021/07/14 06:25:25;;;;;;;18.60;13.85;;;;;;;21.53;72.46;94589.84;1686366;83;21028;-56
2021/07/14 06:27:51;;;;;;;25.08;14.50;;;;;;;21.64;72.33;94589.13;1699496;82;21249;-57
2021/07/14 06:30:18;;;;;;;17.70;13.53;;;;;;;21.74;71.98;94587.52;1689790;83;21117;-60
2021/07/14 06:32:51;;;;;;;25.48;15.48;;;;;;;21.85;72.03;94588.80;1678986;83;21153;-58
2021/07/14 06:35:13;;;;;;;21.62;14.43;;;;;;;21.96;71.73;94588.70;1675395;84;21078;-56
2021/07/14 06:37:44;;;;;;;14.95;13.50;;;;;;;22.08;71.64;94581.70;1682594;83;21340;-58
2021/07/14 06:40:12;;;;;;;18.55;13.80;;;;;;;22.19;71.26;94585.14;1674174;83;21043;-57
2021/07/14 06:42:39;;;;;;;18.82;13.53;;;;;;;22.35;70.93;94594.02;1634229;84;21081;-57
2021/07/14 06:45:11;;;;;;;21.07;13.43;;;;;;;22.47;69.82;94587.66;1661939;84;21050;-58
2021/07/14 06:47:37;;;;;;;23.62;13.93;;;;;;;22.59;68.88;94592.60;1673896;83;21117;-65
2021/07/14 06:50:05;;;;;;;16.67;13.32;;;;;;;22.74;68.59;94587.31;1678020;83;21150;-55
2021/07/14 06:52:32;;;;;;;21.73;13.75;;;;;;;22.88;68.00;94588.89;1682764;83;21002;-56
2021/07/14 06:55:01;;;;;;;20.23;14.07;;;;;;;22.99;67.76;94585.20;1684117;83;22239;-56
2021/07/14 06:57:28;;;;;;;24.07;14.70;;;;;;;23.10;67.68;94583.62;1695234;82;21057;-59
2021/07/14 06:59:54;;;;;;;24.55;15.38;;;;;;;23.21;67.32;94585.64;1688426;82;21045;-56
2021/07/14 07:02:21;;;;;;;14.93;12.70;;;;;;;23.35;67.27;94582.27;1682490;83;22200;-57
2021/07/14 07:04:49;;;;;;;18.80;13.43;;;;;;;23.44;66.93;94569.99;1677184;83;21073;-58
2021/07/14 07:07:16;;;;;;;15.90;13.10;;;;;;;23.51;66.74;94570.76;1680727;83;21948;-57
2021/07/14 07:09:45;;;;;;;15.38;13.62;;;;;;;23.60;66.64;94562.58;1678121;83;21478;-59
2021/07/14 07:12:13;;;;;;;16.73;14.13;;;;;;;23.69;65.98;94561.52;1674479;84;20999;-54
2021/07/14 07:14:43;;;;;;;16.60;13.03;;;;;;;23.79;65.73;94563.27;1676186;83;21160;-60
2021/07/14 07:17:11;;;;;;;15.68;13.53;;;;;;;23.91;65.16;94556.94;1684414;82;21061;-56
2021/07/14 07:19:38;;;;;;;16.85;13.22;;;;;;;24.03;64.72;94561.07;1675480;84;21041;-59
2021/07/14 07:22:05;;;;;;;19.27;14.43;;;;;;;24.16;64.49;94558.25;1667951;83;21630;-61
2021/07/14 07:24:33;;;;;;;15.38;13.72;;;;;;;24.24;64.11;94556.32;1685907;83;21042;-60
2021/07/14 07:27:00;;;;;;;18.73;15.63;;;;;;;24.32;63.85;94556.54;1681901;83;21124;-56
2021/07/14 07:29:28;;;;;;;17.42;13.18;;;;;;;24.40;64.04;94553.17;1692854;83;21045;-57
2021/07/14 07:31:55;;;;;;;17.45;13.93;;;;;;;24.50;63.98;94552.85;1679078;83;21031;-57
2021/07/14 07:34:22;;;;;;;22.30;15.40;;;;;;;24.60;63.88;94548.31;1676459;83;21533;-55
2021/07/14 07:36:49;;;;;;;14.55;13.00;;;;;;;24.72;63.69;94550.27;1682681;83;21189;-62
2021/07/14 07:39:16;;;;;;;14.53;12.93;;;;;;;24.85;63.76;94541.77;1683663;83;21135;-57
2021/07/14 07:41:43;;;;;;;13.40;11.63;;;;;;;25.01;61.33;94538.61;1680942;83;21131;-60
2021/07/14 07:44:09;;;;;;;13.28;11.88;;;;;;;25.16;60.16;94528.15;1693411;82;21026;-55
2021/07/14 07:46:37;;;;;;;14.87;11.75;;;;;;;25.31;60.04;94529.75;1681258;83;21115;-59
2021/07/14 07:49:04;;;;;;;17.23;12.65;;;;;;;25.45;60.46;94527.72;1681285;83;21036;-56
2021/07/14 07:51:32;;;;;;;15.98;11.95;;;;;;;25.59;60.26;94521.36;1692522;82;21121;-59
2021/07/14 07:54:03;;;;;;;13.15;11.85;;;;;;;25.76;59.26;94523.10;1660056;84;21055;-55
2021/07/14 07:56:33;;;;;;;20.10;14.40;;;;;;;25.91;58.38;94514.16;1619290;86;21045;-63
2021/07/14 07:59:02;;;;;;;13.35;12.15;;;;;;;26.10;58.25;94518.23;1626315;86;21090;-60
2021/07/14 08:01:31;;;;;;;15.80;12.80;;;;;;;26.29;56.27;94507.44;1664593;84;21110;-62
2021/07/14 08:04:01;;;;;;;14.10;12.13;;;;;;;26.47;56.14;94511.31;1650511;84;21086;-58
2021/07/14 08:06:28;;;;;;;14.95;11.63;;;;;;;26.64;56.17;94506.72;1646496;84;21102;-60
2021/07/14 08:08:55;;;;;;;12.47;11.22;;;;;;;26.82;56.02;94502.84;1661989;84;21155;-62
2021/07/14 08:11:21;;;;;;;15.25;11.70;;;;;;;26.97;55.50;94505.72;1668130;84;21090;-60
2021/07/14 08:13:48;;;;;;;13.18;11.88;;;;;;;27.10;55.99;94507.02;1608736;86;21434;-55
2021/07/14 08:16:15;;;;;;;12.53;11.22;;;;;;;27.26;56.13;94502.89;1595854;88;21214;-55
2021/07/14 08:18:43;;;;;;;13.18;11.78;;;;;;;27.44;56.09;94507.45;1671746;84;21042;-58
2021/07/14 08:21:11;;;;;;;19.15;12.93;;;;;;;27.55;55.64;94504.27;1680546;83;21066;-57
2021/07/14 08:23:38;;;;;;;14.98;11.30;;;;;;;27.65;55.26;94492.51;1684445;83;21069;-56
2021/07/14 08:26:05;;;;;;;12.55;11.20;;;;;;;27.81;55.75;94490.45;1680896;83;21145;-61
2021/07/14 08:28:32;;;;;;;14.53;11.97;;;;;;;27.94;55.51;94491.01;1682742;83;21107;-55
2021/07/14 08:30:58;;;;;;;22.02;12.53;;;;;;;28.06;55.06;94496.38;1679060;83;21167;-59
2021/07/14 08:33:25;;;;;;;13.62;11.60;;;;;;;28.16;54.99;94493.81;1679231;83;20982;-58
2021/07/14 08:35:54;;;;;;;13.22;11.83;;;;;;;28.30;55.21;94495.77;1679211;83;21049;-61
2021/07/14 08:38:22;;;;;;;17.57;12.25;;;;;;;28.41;54.37;94496.14;1654943;84;21075;-59
2021/07/14 08:40:50;;;;;;;12.33;11.12;;;;;;;28.55;54.26;94492.45;1641824;85;21191;-58
2021/07/14 08:43:20;;;;;;;13.50;11.40;;;;;;;28.72;53.35;94493.97;1680717;83;22120;-58
2021/07/14 08:45:49;;;;;;;14.73;10.93;;;;;;;28.85;53.29;94488.06;1677929;83;21045;-59
2021/07/14 08:48:16;;;;;;;29.82;16.52;;;;;;;28.98;52.57;94481.52;1680977;83;21780;-57
2021/07/14 08:50:44;;;;;;;14.98;11.50;;;;;;;29.12;52.28;94488.44;1697526;82;21027;-58
2021/07/14 08:53:18;;;;;;;17.85;12.90;;;;;;;29.27;51.48;94473.42;1690693;82;21553;-57
2021/07/14 08:55:45;;;;;;;16.90;11.30;;;;;;;29.41;50.80;94476.08;1687754;82;21581;-58
2021/07/14 08:58:13;;;;;;;23.05;10.90;;;;;;;29.52;49.41;94474.24;1693095;83;21037;-63
2021/07/14 09:00:40;;;;;;;12.73;10.13;;;;;;;29.62;48.23;94475.09;1692098;83;21085;-60
2021/07/14 09:03:07;;;;;;;14.38;10.90;;;;;;;29.74;48.27;94478.34;1694076;83;22039;-61
2021/07/14 09:05:34;;;;;;;10.65;9.53;;;;;;;29.88;47.81;94474.53;1680675;82;21145;-58
2021/07/14 09:08:01;;;;;;;17.30;10.23;;;;;;;30.01;47.99;94474.31;1687522;82;21019;-56
2021/07/14 09:10:28;;;;;;;12.10;9.63;;;;;;;30.14;47.40;94472.59;1683076;82;21057;-59
2021/07/14 09:12:57;;;;;;;11.73;10.05;;;;;;;30.26;45.69;94473.63;1686677;83;21044;-57
2021/07/14 09:15:27;;;;;;;12.63;9.63;;;;;;;30.39;45.93;94463.38;1677993;83;21089;-61
2021/07/14 09:17:58;;;;;;;13.10;9.65;;;;;;;30.53;44.25;94465.94;1686348;83;21073;-60
2021/07/14 09:20:29;;;;;;;10.30;9.13;;;;;;;30.60;44.30;94464.38;1689549;83;20990;-60
2021/07/14 09:23:17;;;;;;;12.13;9.53;;;;;;;30.69;43.55;94463.04;1682276;83;21521;-59
2021/07/14 09:25:55;;;;;;;11.95;9.93;;;;;;;30.78;42.55;94455.92;1680155;83;21044;-60
2021/07/14 09:28:33;;;;;;;12.60;9.38;;;;;;;30.90;42.33;94454.82;1679844;83;22426;-62
2021/07/14 09:31:03;;;;;;;10.20;9.05;;;;;;;31.04;42.36;94458.81;1679604;83;22307;-57
2021/07/14 09:33:30;;;;;;;11.28;8.63;;;;;;;31.23;43.09;94456.80;1679605;83;21057;-57
2021/07/14 09:35:58;;;;;;;12.73;9.83;;;;;;;31.41;42.29;94464.67;1682079;83;21051;-55
2021/07/14 09:38:31;;;;;;;15.90;9.15;;;;;;;31.56;41.60;94462.29;1679727;83;21463;-60
2021/07/14 09:41:08;;;;;;;9.95;8.95;;;;;;;31.65;41.96;94461.59;1692011;83;21046;-61
2021/07/14 09:43:38;;;;;;;11.00;9.65;;;;;;;31.73;41.32;94464.41;1681588;83;21329;-60
2021/07/14 09:46:07;;;;;;;13.65;9.20;;;;;;;31.84;40.42;94463.86;1671399;84;21099;-58
2021/07/14 09:48:39;;;;;;;9.83;8.40;;;;;;;31.90;40.67;94462.20;1691629;83;21105;-57
2021/07/14 09:51:13;;;;;;;10.08;9.03;;;;;;;31.98;40.24;94464.27;1688365;83;21077;-56
2021/07/14 09:53:51;;;;;;;9.55;8.65;;;;;;;32.05;40.14;94459.11;1689201;82;21149;-63
2021/07/14 09:56:30;;;;;;;10.70;9.35;;;;;;;32.18;40.02;94462.23;1681349;83;22337;-63
2021/07/14 09:59:11;;;;;;;9.75;8.23;;;;;;;32.31;39.44;94451.84;1684757;83;22295;-62
2021/07/14 10:01:51;;;;;;;;;;;;;;;32.45;38.15;94452.92;1689562;82;21148;-62
2021/07/14 10:04:24;;;;;;;15.70;9.23;;;;;;;32.52;37.59;94449.94;1688732;83;20229;-61
2021/07/14 10:07:18;;;;;;;18.35;8.60;;;;;;;32.56;38.07;94448.07;1684849;83;21554;-57
2021/07/14 10:09:45;;;;;;;8.75;7.87;;;;;;;32.66;38.52;94445.30;1681147;82;21118;-61
2021/07/14 10:12:31;;;;;;;8.03;7.22;;;;;;;32.78;38.83;94443.35;1688245;83;21074;-54
2021/07/14 10:15:15;;;;;;;10.48;7.85;;;;;;;32.94;38.00;94439.53;1695928;83;21060;-58
2021/07/14 10:17:47;;;;;;;9.73;8.43;;;;;;;33.09;37.60;94445.66;1623656;86;21587;-56
2021/07/14 10:20:32;;;;;;;13.30;8.55;;;;;;;33.25;38.42;94447.52;1690452;83;21045;-56
2021/07/14 10:23:19;;;;;;;14.05;8.70;;;;;;;33.34;37.44;94441.79;1691940;83;21949;-55
2021/07/14 10:25:45;;;;;;;8.40;7.60;;;;;;;33.49;37.60;94437.86;1690037;82;21186;-60
2021/07/14 10:28:14;;;;;;;10.95;7.60;;;;;;;33.60;36.30;94435.12;1678762;83;21062;-56
2021/07/14 10:30:41;;;;;;;9.80;7.42;;;;;;;33.72;36.21;94441.69;1693626;83;20991;-58
2021/07/14 10:33:10;;;;;;;8.65;7.75;;;;;;;33.90;36.14;94433.66;1666268;84;21025;-56
2021/07/14 10:35:42;;;;;;;10.15;7.05;;;;;;;34.08;35.92;94434.98;1685176;83;21121;-60
2021/07/14 10:38:25;;;;;;;9.63;7.72;;;;;;;34.27;35.09;94437.75;1678368;83;21040;-57
2021/07/14 10:40:52;;;;;;;10.03;7.22;;;;;;;34.49;35.04;94436.39;1681902;83;20994;-56
2021/07/14 10:43:25;;;;;;;12.80;8.48;;;;;;;34.69;35.51;94433.48;1681673;83;21018;-55
2021/07/14 10:45:52;;;;;;;7.70;6.90;;;;;;;34.82;34.15;94435.79;1693038;83;21030;-57
2021/07/14 10:48:22;;;;;;;11.33;7.62;;;;;;;34.91;33.08;94437.80;1689257;82;21129;-55
2021/07/14 10:50:52;;;;;;;9.20;7.92;;;;;;;34.89;32.51;94437.67;1682889;83;21090;-57
2021/07/14 10:53:20;;;;;;;8.95;7.62;;;;;;;34.87;32.75;94438.24;1653657;85;21535;-61
2021/07/14 10:55:46;;;;;;;11.00;7.03;;;;;;;34.93;32.67;94429.38;1652561;85;21135;-56
2021/07/14 10:58:20;;;;;;;8.38;6.33;;;;;;;35.10;32.90;94431.91;1661494;84;21193;-59
2021/07/14 11:00:47;;;;;;;10.55;6.80;;;;;;;35.34;32.14;94424.93;1686062;83;21145;-57
2021/07/14 11:03:38;;;;;;;13.20;6.87;;;;;;;35.57;31.59;94424.97;1681032;83;20899;-58
2021/07/14 11:06:09;;;;;;;14.93;6.62;;;;;;;35.80;32.38;94417.84;1686614;83;21042;-56
2021/07/14 11:08:47;;;;;;;7.10;6.40;;;;;;;36.13;31.50;94428.52;1683664;83;21077;-58
2021/07/14 11:11:18;;;;;;;8.90;6.45;;;;;;;36.38;29.99;94418.57;1673410;83;21691;-57
2021/07/14 11:13:50;;;;;;;8.05;6.42;;;;;;;36.46;29.50;94419.07;1656260;84;21136;-62
2021/07/14 11:16:38;;;;;;;10.20;6.35;;;;;;;36.45;29.09;94406.11;1628481;86;21147;-63
2021/07/14 11:19:12;;;;;;;7.33;6.22;;;;;;;36.45;29.65;94408.98;1686489;84;21109;-62
2021/07/14 11:21:49;;;;;;;8.45;5.83;;;;;;;36.76;30.07;94405.85;1658539;84;21586;-64
2021/07/14 11:24:41;;;;;;;8.65;5.53;;;;;;;37.12;29.31;94402.94;1686711;83;21070;-61
2021/07/14 11:27:29;;;;;;;8.33;5.95;;;;;;;37.49;29.20;94405.06;1686556;83;21070;-61
2021/07/14 11:30:10;;;;;;;10.58;5.78;;;;;;;37.78;28.49;94399.47;1690981;81;21010;-69
2021/07/14 11:32:46;;;;;;;10.43;5.83;;;;;;;38.08;27.93;94399.75;1681966;83;20978;-65
2021/07/14 11:35:20;;;;;;;6.10;4.75;;;;;;;38.41;26.42;94396.45;1686289;83;21037;-62
2021/07/14 11:37:55;;;;;;;10.93;5.90;;;;;;;38.70;27.56;94391.50;1687626;83;21293;-63
2021/07/14 11:40:28;;;;;;;11.28;5.37;;;;;;;38.94;27.57;94388.45;1682367;83;22470;-66